createdAt,value
2022-11-05T00:01:19.306Z,30.70
2022-11-05T00:04:06.279Z,31.38
2022-11-05T00:06:53.792Z,30.58
2022-11-05T00:09:30.798Z,31.67
2022-11-05T00:12:21.289Z,30.48
2022-11-05T00:15:12.088Z,29.17
2022-11-05T00:17:41.509Z,30.65
2022-11-05T00:20:13.888Z,30.60
2022-11-05T00:23:01.067Z,31.85
2022-11-05T00:28:22.864Z,29.38
2022-11-05T00:30:53.264Z,29.00
2022-11-05T00:33:21.888Z,30.77
2022-11-05T00:35:50.134Z,28.88
2022-11-05T00:38:18.677Z,28.10
2022-11-05T00:40:47.104Z,28.23
2022-11-05T00:43:34.272Z,26.85
2022-11-05T00:46:02.592Z,28.00
2022-11-05T00:49:03.583Z,28.15
2022-11-05T00:51:31.951Z,27.70
2022-11-05T00:54:00.643Z,30.08
2022-11-05T00:56:28.907Z,30.92
2022-11-05T00:58:57.631Z,32.45
2022-11-05T01:01:27.080Z,34.75
2022-11-05T01:03:55.917Z,32.92
2022-11-05T01:06:24.436Z,32.25
2022-11-05T01:08:56.321Z,31.63
2022-11-05T01:11:33.721Z,31.20
2022-11-05T01:14:05.547Z,30.30
2022-11-05T01:16:34.038Z,32.00
2022-11-05T01:19:04.489Z,29.33
2022-11-05T01:21:33.217Z,28.67
2022-11-05T01:24:02.624Z,27.67
2022-11-05T01:26:31.015Z,27.92
2022-11-05T01:29:02.556Z,28.13
2022-11-05T01:31:31.011Z,27.75
2022-11-05T01:34:01.101Z,29.33
2022-11-05T01:36:29.431Z,32.05
2022-11-05T01:38:58.305Z,29.42
2022-11-05T01:41:26.864Z,27.17
2022-11-05T01:43:59.370Z,28.23
2022-11-05T01:46:47.852Z,27.60
2022-11-05T01:49:35.160Z,27.15
2022-11-05T01:52:05.102Z,26.38
2022-11-05T01:54:35.958Z,27.70
2022-11-05T01:57:08.505Z,28.27
2022-11-05T01:59:48.164Z,27.60
2022-11-05T02:02:18.199Z,27.85
2022-11-05T02:04:54.244Z,27.52
2022-11-05T02:07:26.957Z,27.25
2022-11-05T02:10:05.666Z,27.13
2022-11-05T02:12:36.785Z,26.55
2022-11-05T02:15:07.442Z,26.33
2022-11-05T02:17:47.723Z,27.00
2022-11-05T02:20:52.235Z,27.08
2022-11-05T02:23:56.776Z,28.98
2022-11-05T02:26:58.011Z,27.42
2022-11-05T02:29:38.081Z,27.83
2022-11-05T02:32:34.454Z,27.25
2022-11-05T02:35:18.223Z,25.95
2022-11-05T02:38:09.930Z,25.90
2022-11-05T02:44:06.988Z,26.10
2022-11-05T02:46:46.256Z,24.70
2022-11-05T02:49:21.002Z,26.00
2022-11-05T02:52:32.103Z,25.10
2022-11-05T02:55:15.783Z,25.38
2022-11-05T02:57:47.043Z,25.13
2022-11-05T03:00:37.898Z,26.10
2022-11-05T03:03:12.603Z,25.60
2022-11-05T03:05:55.821Z,26.27
2022-11-05T03:08:54.901Z,27.45
2022-11-05T03:11:27.263Z,26.40
2022-11-05T03:14:01.184Z,26.05
2022-11-05T03:16:42.417Z,28.38
2022-11-05T03:19:42.957Z,27.05
2022-11-05T03:22:18.684Z,26.35
2022-11-05T03:24:51.837Z,26.02
2022-11-05T03:27:30.216Z,26.13
2022-11-05T03:30:05.839Z,27.13
2022-11-05T03:32:37.523Z,27.48
2022-11-05T03:35:12.760Z,26.70
2022-11-05T03:37:46.149Z,26.85
2022-11-05T03:40:18.653Z,26.77
2022-11-05T03:42:53.588Z,28.25
2022-11-05T03:45:28.809Z,27.17
2022-11-05T03:48:02.090Z,27.80
2022-11-05T03:50:54.324Z,27.77
2022-11-05T03:53:28.199Z,26.38
2022-11-05T03:56:02.794Z,27.95
2022-11-05T03:58:32.110Z,26.90
2022-11-05T04:01:02.846Z,26.77
2022-11-05T04:03:36.465Z,27.20
2022-11-05T04:06:26.333Z,27.00
2022-11-05T04:09:13.534Z,26.33
2022-11-05T04:12:10.946Z,27.23
2022-11-05T04:14:39.814Z,25.33
2022-11-05T04:17:09.901Z,25.33
2022-11-05T04:20:05.982Z,24.95
2022-11-05T04:22:54.121Z,26.08
2022-11-05T04:25:23.541Z,27.52
2022-11-05T04:27:52.045Z,28.20
2022-11-05T04:30:21.709Z,28.08
2022-11-05T04:33:05.568Z,28.35
2022-11-05T04:35:37.600Z,28.45
2022-11-05T04:38:08.180Z,27.13
2022-11-05T04:40:37.570Z,28.38
2022-11-05T04:43:10.642Z,28.40
2022-11-05T04:45:44.105Z,27.08
2022-11-05T04:48:12.687Z,26.77
2022-11-05T04:50:41.375Z,29.40
2022-11-05T04:53:09.810Z,28.95
2022-11-05T04:55:39.050Z,28.23
2022-11-05T04:58:07.329Z,28.40
2022-11-05T05:00:36.053Z,28.15
2022-11-05T05:03:04.456Z,30.27
2022-11-05T05:05:33.266Z,33.00
2022-11-05T05:08:03.553Z,29.13
2022-11-05T05:10:33.053Z,27.88
2022-11-05T05:13:01.262Z,25.98
2022-11-05T05:15:30.054Z,25.90
2022-11-05T05:17:58.312Z,25.67
2022-11-05T05:20:45.650Z,25.95
2022-11-05T05:23:14.701Z,25.65
2022-11-05T05:25:43.410Z,24.98
2022-11-05T05:28:11.703Z,26.42
2022-11-05T05:30:40.494Z,25.48
2022-11-05T05:33:08.915Z,24.77
2022-11-05T05:35:37.681Z,26.67
2022-11-05T05:38:06.027Z,24.88
2022-11-05T05:40:34.681Z,25.90
2022-11-05T05:43:02.973Z,24.77
2022-11-05T05:45:31.794Z,25.92
2022-11-05T05:48:00.561Z,27.05
2022-11-05T05:50:29.295Z,29.02
2022-11-05T05:52:57.850Z,26.25
2022-11-05T05:55:26.493Z,24.98
2022-11-05T05:57:55.062Z,23.52
2022-11-05T06:00:23.778Z,23.77
2022-11-05T06:02:52.074Z,23.38
2022-11-05T06:05:20.996Z,25.08
2022-11-05T06:07:57.078Z,25.33
2022-11-05T06:10:26.093Z,23.83
2022-11-05T06:12:54.345Z,24.65
2022-11-05T06:15:22.906Z,25.17
2022-11-05T06:17:51.436Z,24.27
2022-11-05T06:20:21.724Z,23.48
2022-11-05T06:22:57.608Z,23.40
2022-11-05T06:25:26.716Z,23.60
2022-11-05T06:27:54.954Z,24.70
2022-11-05T06:30:24.247Z,24.48
2022-11-05T06:32:52.503Z,23.35
2022-11-05T06:35:21.234Z,23.55
2022-11-05T06:37:49.530Z,23.30
2022-11-05T06:40:18.075Z,23.38
2022-11-05T06:42:52.752Z,21.60
2022-11-05T06:47:59.342Z,20.60
2022-11-05T06:50:31.108Z,19.85
2022-11-05T06:53:01.838Z,19.80
2022-11-05T06:55:32.219Z,19.90
2022-11-05T06:58:01.061Z,19.75
2022-11-05T07:00:29.971Z,20.30
2022-11-05T07:03:06.033Z,20.27
2022-11-05T07:05:37.511Z,19.60
2022-11-05T07:08:06.307Z,19.42
2022-11-05T07:10:37.681Z,20.27
2022-11-05T07:13:08.403Z,21.23
2022-11-05T07:15:40.916Z,21.13
2022-11-05T07:18:09.646Z,21.27
2022-11-05T07:20:39.402Z,20.55
2022-11-05T07:23:11.333Z,21.00
2022-11-05T07:25:41.610Z,20.25
2022-11-05T07:28:10.546Z,21.80
2022-11-05T07:30:39.726Z,21.92
2022-11-05T07:33:08.308Z,20.63
2022-11-05T07:35:37.174Z,20.52
2022-11-05T07:38:05.439Z,21.38
2022-11-05T07:40:34.365Z,22.25
2022-11-05T07:43:02.895Z,22.23
2022-11-05T07:45:32.327Z,23.73
2022-11-05T07:48:02.569Z,23.83
2022-11-05T07:50:33.861Z,24.27
2022-11-05T07:53:14.916Z,28.17
2022-11-05T07:55:46.081Z,26.65
2022-11-05T07:58:14.677Z,25.58
2022-11-05T08:00:43.574Z,26.70
2022-11-05T08:03:17.597Z,25.42
2022-11-05T08:05:48.162Z,26.92
2022-11-05T08:08:18.253Z,26.42
2022-11-05T08:10:47.127Z,26.88
2022-11-05T08:13:15.678Z,25.33
2022-11-05T08:15:46.283Z,23.75
2022-11-05T08:18:17.314Z,20.20
2022-11-05T08:20:47.580Z,18.00
2022-11-05T08:23:16.335Z,16.85
2022-11-05T08:25:45.023Z,15.15
2022-11-05T08:28:14.479Z,15.52
2022-11-05T08:30:43.721Z,13.02
2022-11-05T08:33:16.753Z,13.90
2022-11-05T08:35:45.565Z,12.73
2022-11-05T08:38:15.702Z,13.95
2022-11-05T08:40:46.430Z,14.13
2022-11-05T08:43:15.083Z,13.25
2022-11-05T08:45:44.051Z,12.32
2022-11-05T08:48:47.826Z,11.43
2022-11-05T08:51:16.787Z,15.27
2022-11-05T08:53:45.244Z,12.48
2022-11-05T08:56:13.965Z,11.60
2022-11-05T08:58:42.456Z,10.45
2022-11-05T09:01:11.335Z,10.10
2022-11-05T09:03:39.708Z,9.32
2022-11-05T09:06:08.324Z,8.95
2022-11-05T09:08:36.783Z,7.60
2022-11-05T09:11:05.585Z,7.68
2022-11-05T09:13:34.014Z,6.68
2022-11-05T09:16:03.647Z,6.95
2022-11-05T09:18:35.580Z,6.40
2022-11-05T09:21:07.317Z,6.43
2022-11-05T09:23:35.716Z,6.30
2022-11-05T09:26:04.518Z,7.05
2022-11-05T09:28:33.333Z,5.97
2022-11-05T09:34:00.273Z,5.55
2022-11-05T09:36:29.232Z,6.65
2022-11-05T09:38:57.629Z,5.57
2022-11-05T09:41:37.650Z,4.68
2022-11-05T09:44:13.806Z,4.40
2022-11-05T09:46:51.550Z,5.30
2022-11-05T09:49:30.968Z,5.10
2022-11-05T09:51:59.634Z,5.28
2022-11-05T09:54:32.194Z,4.88
2022-11-05T09:57:03.525Z,5.15
2022-11-05T09:59:44.954Z,5.20
2022-11-05T10:03:19.090Z,10.70
2022-11-05T10:05:49.292Z,9.20
2022-11-05T10:08:50.957Z,4.43
2022-11-05T10:11:44.227Z,4.18
2022-11-05T10:15:28.044Z,5.18
2022-11-05T10:18:06.443Z,4.80
2022-11-05T10:20:39.675Z,5.25
2022-11-05T10:23:14.286Z,4.35
2022-11-05T10:25:46.915Z,6.07
2022-11-05T10:30:50.065Z,7.88
2022-11-05T10:33:44.623Z,6.97
2022-11-05T10:36:25.292Z,5.07
2022-11-05T10:38:54.503Z,10.90
2022-11-05T10:41:42.339Z,9.68
2022-11-05T10:44:18.983Z,5.43
2022-11-05T10:47:27.840Z,4.70
2022-11-05T10:49:59.179Z,4.38
2022-11-05T10:52:46.110Z,7.97
2022-11-05T10:55:35.396Z,4.88
2022-11-05T10:58:10.022Z,3.95
2022-11-05T11:00:38.749Z,4.38
2022-11-05T11:03:28.491Z,3.63
2022-11-05T11:06:02.170Z,3.28
2022-11-05T11:08:35.734Z,3.92
2022-11-05T11:11:07.998Z,4.13
2022-11-05T11:13:57.192Z,4.20
2022-11-05T11:16:28.128Z,4.20
2022-11-05T11:19:01.411Z,5.05
2022-11-05T11:21:32.015Z,7.60
2022-11-05T11:24:03.235Z,6.55
2022-11-05T11:26:34.828Z,4.70
2022-11-05T11:29:18.848Z,6.25
2022-11-05T11:31:47.479Z,4.07
2022-11-05T11:34:28.060Z,4.70
2022-11-05T11:37:19.370Z,5.20
2022-11-05T11:39:56.251Z,6.07
2022-11-05T11:42:30.451Z,5.38
2022-11-05T11:45:04.799Z,4.53
2022-11-05T11:47:33.757Z,3.95
2022-11-05T11:50:03.231Z,4.95
2022-11-05T11:52:36.714Z,5.13
2022-11-05T11:55:11.640Z,5.10
2022-11-05T11:57:52.565Z,6.53
2022-11-05T12:00:24.320Z,6.37
2022-11-05T12:03:04.870Z,5.95
2022-11-05T12:06:01.869Z,5.72
2022-11-05T12:12:19.264Z,5.07
2022-11-05T12:15:16.603Z,6.22
2022-11-05T12:18:25.670Z,7.25
2022-11-05T12:21:06.369Z,6.65
2022-11-05T12:24:10.465Z,7.47
2022-11-05T12:26:38.657Z,7.45
2022-11-05T12:30:35.823Z,6.65
2022-11-05T12:33:17.691Z,6.75
2022-11-05T12:35:57.429Z,4.75
2022-11-05T12:39:00.971Z,5.57
2022-11-05T12:41:46.604Z,4.43
2022-11-05T12:44:20.702Z,4.90
2022-11-05T12:47:07.833Z,5.80
2022-11-05T12:49:59.694Z,7.38
2022-11-05T12:53:04.331Z,4.63
2022-11-05T12:55:41.757Z,10.02
2022-11-05T12:58:39.885Z,10.00
2022-11-05T13:01:15.148Z,4.40
2022-11-05T13:03:56.049Z,4.20
2022-11-05T13:06:46.954Z,4.93
2022-11-05T13:09:41.681Z,7.20
2022-11-05T13:12:22.748Z,7.75
2022-11-05T13:15:05.541Z,7.65
2022-11-05T13:17:52.189Z,9.75
2022-11-05T13:20:24.658Z,16.55
2022-11-05T13:23:01.113Z,11.52
2022-11-05T13:25:33.719Z,11.27
2022-11-05T13:28:13.966Z,13.27
2022-11-05T13:30:52.421Z,7.68
2022-11-05T13:33:38.162Z,6.82
2022-11-05T13:36:31.175Z,7.97
2022-11-05T13:41:50.870Z,8.77
2022-11-05T13:44:40.202Z,8.52
2022-11-05T13:47:37.494Z,6.82
2022-11-05T13:50:54.410Z,5.30
2022-11-05T13:53:41.349Z,6.95
2022-11-05T13:56:49.639Z,8.15
2022-11-05T13:59:37.039Z,9.27
2022-11-05T14:02:21.067Z,11.48
2022-11-05T14:05:00.526Z,11.68
2022-11-05T14:07:46.163Z,9.55
2022-11-05T14:10:39.542Z,6.88
2022-11-05T14:13:23.148Z,5.88
2022-11-05T14:16:17.032Z,8.05
2022-11-05T14:18:52.560Z,7.10
2022-11-05T14:21:27.541Z,8.50
2022-11-05T14:23:59.549Z,8.30
2022-11-05T14:26:30.294Z,11.32
2022-11-05T14:29:07.680Z,11.52
2022-11-05T14:32:08.181Z,12.48
2022-11-05T14:35:07.688Z,11.32
2022-11-05T14:37:50.926Z,11.40
2022-11-05T14:40:22.172Z,9.35
2022-11-05T14:43:26.074Z,8.02
2022-11-05T14:46:06.312Z,5.53
2022-11-05T14:48:58.747Z,6.13
2022-11-05T14:51:31.870Z,6.97
2022-11-05T14:54:03.393Z,8.38
2022-11-05T14:56:55.926Z,6.57
2022-11-05T14:59:28.125Z,6.38
2022-11-05T15:02:01.293Z,6.75
2022-11-05T15:04:36.467Z,6.65
2022-11-05T15:07:08.431Z,5.60
2022-11-05T15:09:50.288Z,6.00
2022-11-05T15:12:40.402Z,8.13
2022-11-05T15:15:28.683Z,8.75
2022-11-05T15:18:21.719Z,9.60
2022-11-05T15:20:54.870Z,6.72
2022-11-05T15:23:27.192Z,6.50
2022-11-05T15:26:14.929Z,6.28
2022-11-05T15:30:48.591Z,6.40
2022-11-05T15:36:59.901Z,7.07
2022-11-05T16:22:16.038Z,8.00
2022-11-05T16:24:46.360Z,18.58
2022-11-05T16:27:44.297Z,14.70
2022-11-05T16:30:19.584Z,14.68
2022-11-05T16:32:48.354Z,10.40
2022-11-05T16:35:20.977Z,15.32
2022-11-05T16:37:52.306Z,28.23
2022-11-05T16:42:54.263Z,17.13
2022-11-05T16:45:25.210Z,19.40
2022-11-05T16:47:53.620Z,20.60
2022-11-05T16:50:26.735Z,27.85
2022-11-05T16:52:55.537Z,14.85
2022-11-05T16:55:24.348Z,15.70
2022-11-05T16:57:54.940Z,18.98
2022-11-05T17:00:25.274Z,18.65
2022-11-05T17:27:29.906Z,15.20
2022-11-05T17:46:23.012Z,23.75
2022-11-05T17:48:59.035Z,14.45
2022-11-05T17:51:27.510Z,11.05
2022-11-05T17:53:56.189Z,22.98
2022-11-05T17:56:53.278Z,16.13
2022-11-05T18:05:09.441Z,17.70
2022-11-05T18:22:32.572Z,40.42
2022-11-05T18:30:01.832Z,31.92
2022-11-05T19:03:17.878Z,16.10
2022-11-05T19:05:50.146Z,22.23
2022-11-05T19:08:18.555Z,25.60
2022-11-05T20:01:48.820Z,29.17
2022-11-05T20:04:17.970Z,30.55
2022-11-05T20:07:11.473Z,26.02
2022-11-05T20:15:09.319Z,28.30
2022-11-05T20:17:39.556Z,27.65
2022-11-05T20:20:08.546Z,29.38
2022-11-05T21:08:05.606Z,27.60
2022-11-05T21:10:34.498Z,26.45
2022-11-05T21:13:02.912Z,26.88
2022-11-05T21:15:32.489Z,25.60
2022-11-05T21:18:01.071Z,23.92
2022-11-05T21:20:29.919Z,26.67
2022-11-05T21:22:58.555Z,28.58
2022-11-05T21:25:27.175Z,29.25
2022-11-05T21:27:55.629Z,33.75
2022-11-05T21:30:25.998Z,38.28
2022-11-05T21:32:54.640Z,38.70
2022-11-05T21:35:23.693Z,31.30
2022-11-05T21:37:52.087Z,28.42
2022-11-05T21:40:20.892Z,27.08
2022-11-05T21:42:51.800Z,28.63
2022-11-05T21:45:45.493Z,29.90
2022-11-05T21:48:15.461Z,21.92
2022-11-05T21:58:05.408Z,23.45
2022-11-05T22:00:33.955Z,21.42
2022-11-05T22:03:03.007Z,21.10
2022-11-05T22:05:31.475Z,19.40
2022-11-05T22:08:00.508Z,19.90
2022-11-05T22:10:53.720Z,18.52
2022-11-05T22:13:25.768Z,14.40
2022-11-05T22:15:57.494Z,11.43
2022-11-05T22:19:17.629Z,14.13
2022-11-05T22:22:29.829Z,21.33
2022-11-05T22:24:58.551Z,17.00
2022-11-05T22:27:26.835Z,17.08
2022-11-05T22:29:55.966Z,15.88
2022-11-05T22:32:24.215Z,14.13
2022-11-05T22:35:18.451Z,12.40
2022-11-05T22:37:46.816Z,14.27
2022-11-05T22:40:28.070Z,13.25
2022-11-05T22:42:56.615Z,12.32
2022-11-05T22:45:27.086Z,13.23
2022-11-05T22:48:45.466Z,13.10
2022-11-05T22:51:26.319Z,15.50
2022-11-05T22:55:22.014Z,16.30
2022-11-05T22:58:00.525Z,16.70
2022-11-05T23:00:39.076Z,23.08
2022-11-05T23:03:08.054Z,25.63
2022-11-05T23:06:02.994Z,23.38
2022-11-05T23:08:50.519Z,23.25
2022-11-05T23:11:36.196Z,21.10
2022-11-05T23:14:07.042Z,20.30
2022-11-05T23:16:54.985Z,23.40
2022-11-05T23:19:42.590Z,29.35
2022-11-05T23:22:36.102Z,35.17
2022-11-05T23:25:07.752Z,29.23
2022-11-05T23:27:37.740Z,30.27
2022-11-05T23:30:10.567Z,40.72
2022-11-05T23:32:39.647Z,44.78
2022-11-05T23:35:09.001Z,45.40
2022-11-05T23:37:56.257Z,47.47
2022-11-05T23:40:30.400Z,43.97
2022-11-05T23:43:16.855Z,39.40
2022-11-05T23:45:48.217Z,29.73
2022-11-05T23:48:35.399Z,33.45
2022-11-05T23:51:10.070Z,33.20
2022-11-05T23:53:40.629Z,31.35
2022-11-05T23:56:15.448Z,31.45
2022-11-05T23:58:43.822Z,31.80
